sensor_id;sensor_type;location;lat;lon;timestamp;P1;durP1;ratioP1;P2;durP2;ratioP2
1601;SDS011;794;48.592;9.634;2023-06-04T00:02:23;11.10;;;5.00;;
1601;SDS011;794;48.592;9.634;2023-06-04T00:04:51;5.07;;;4.33;;
1601;SDS011;794;48.592;9.634;2023-06-04T00:07:18;4.93;;;4.43;;
1601;SDS011;794;48.592;9.634;2023-06-04T00:09:45;11.17;;;4.60;;
1601;SDS011;794;48.592;9.634;2023-06-04T00:12:13;5.80;;;4.00;;
1601;SDS011;794;48.592;9.634;2023-06-04T00:14:41;5.90;;;4.40;;
1601;SDS011;794;48.592;9.634;2023-06-04T00:17:09;8.20;;;4.20;;
1601;SDS011;794;48.592;9.634;2023-06-04T00:19:37;5.00;;;3.80;;
1601;SDS011;794;48.592;9.634;2023-06-04T00:22:05;6.33;;;4.60;;
1601;SDS011;794;48.592;9.634;2023-06-04T00:24:32;6.60;;;3.90;;
1601;SDS011;794;48.592;9.634;2023-06-04T00:26:59;4.50;;;3.50;;
1601;SDS011;794;48.592;9.634;2023-06-04T00:29:27;9.23;;;4.47;;
1601;SDS011;794;48.592;9.634;2023-06-04T00:31:55;5.97;;;3.80;;
1601;SDS011;794;48.592;9.634;2023-06-04T00:34:22;6.87;;;4.00;;
1601;SDS011;794;48.592;9.634;2023-06-04T00:36:49;4.33;;;3.70;;
1601;SDS011;794;48.592;9.634;2023-06-04T00:39:16;4.50;;;4.20;;
1601;SDS011;794;48.592;9.634;2023-06-04T00:41:43;6.10;;;3.90;;
1601;SDS011;794;48.592;9.634;2023-06-04T00:44:10;5.17;;;3.20;;
1601;SDS011;794;48.592;9.634;2023-06-04T00:46:38;6.10;;;4.20;;
1601;SDS011;794;48.592;9.634;2023-06-04T00:49:06;4.17;;;2.90;;
1601;SDS011;794;48.592;9.634;2023-06-04T00:51:33;3.90;;;3.47;;
1601;SDS011;794;48.592;9.634;2023-06-04T00:54:02;4.30;;;3.90;;
1601;SDS011;794;48.592;9.634;2023-06-04T00:56:34;6.30;;;3.10;;
1601;SDS011;794;48.592;9.634;2023-06-04T00:59:02;2.73;;;2.53;;
1601;SDS011;794;48.592;9.634;2023-06-04T01:01:31;3.70;;;3.03;;
1601;SDS011;794;48.592;9.634;2023-06-04T01:04:07;5.50;;;3.43;;
1601;SDS011;794;48.592;9.634;2023-06-04T01:06:41;3.43;;;2.87;;
1601;SDS011;794;48.592;9.634;2023-06-04T01:09:13;4.77;;;3.10;;
1601;SDS011;794;48.592;9.634;2023-06-04T01:11:40;4.60;;;2.10;;
1601;SDS011;794;48.592;9.634;2023-06-04T01:14:08;3.80;;;2.60;;
1601;SDS011;794;48.592;9.634;2023-06-04T01:16:37;4.30;;;3.40;;
1601;SDS011;794;48.592;9.634;2023-06-04T01:19:15;4.00;;;2.90;;
1601;SDS011;794;48.592;9.634;2023-06-04T01:22:10;4.53;;;3.00;;
1601;SDS011;794;48.592;9.634;2023-06-04T01:24:51;5.13;;;3.07;;
1601;SDS011;794;48.592;9.634;2023-06-04T01:27:21;3.13;;;2.60;;
1601;SDS011;794;48.592;9.634;2023-06-04T01:29:49;3.60;;;2.90;;
1601;SDS011;794;48.592;9.634;2023-06-04T01:32:17;3.87;;;2.70;;
1601;SDS011;794;48.592;9.634;2023-06-04T01:34:46;2.90;;;2.30;;
1601;SDS011;794;48.592;9.634;2023-06-04T01:37:13;5.23;;;2.40;;
1601;SDS011;794;48.592;9.634;2023-06-04T01:39:41;6.40;;;3.37;;
1601;SDS011;794;48.592;9.634;2023-06-04T01:42:08;7.03;;;3.37;;
1601;SDS011;794;48.592;9.634;2023-06-04T01:44:36;2.83;;;2.63;;
1601;SDS011;794;48.592;9.634;2023-06-04T01:47:03;2.90;;;2.40;;
1601;SDS011;794;48.592;9.634;2023-06-04T01:49:30;3.37;;;2.90;;
1601;SDS011;794;48.592;9.634;2023-06-04T01:52:01;4.50;;;2.70;;
1601;SDS011;794;48.592;9.634;2023-06-04T01:54:28;2.53;;;2.33;;
1601;SDS011;794;48.592;9.634;2023-06-04T01:56:58;3.27;;;2.50;;
1601;SDS011;794;48.592;9.634;2023-06-04T01:59:26;2.53;;;2.33;;
1601;SDS011;794;48.592;9.634;2023-06-04T02:01:53;3.13;;;2.40;;
1601;SDS011;794;48.592;9.634;2023-06-04T02:04:20;4.40;;;2.10;;
1601;SDS011;794;48.592;9.634;2023-06-04T02:06:48;2.13;;;1.90;;
1601;SDS011;794;48.592;9.634;2023-06-04T02:09:16;4.17;;;2.90;;
1601;SDS011;794;48.592;9.634;2023-06-04T02:11:43;3.10;;;2.53;;
1601;SDS011;794;48.592;9.634;2023-06-04T02:14:10;3.20;;;2.40;;
1601;SDS011;794;48.592;9.634;2023-06-04T02:16:37;4.43;;;3.00;;
1601;SDS011;794;48.592;9.634;2023-06-04T02:19:05;2.20;;;2.00;;
1601;SDS011;794;48.592;9.634;2023-06-04T02:21:32;5.10;;;2.63;;
1601;SDS011;794;48.592;9.634;2023-06-04T02:24:00;2.43;;;1.93;;
1601;SDS011;794;48.592;9.634;2023-06-04T02:26:29;3.07;;;1.97;;
1601;SDS011;794;48.592;9.634;2023-06-04T02:28:56;5.23;;;2.57;;
1601;SDS011;794;48.592;9.634;2023-06-04T02:31:23;4.70;;;2.47;;
1601;SDS011;794;48.592;9.634;2023-06-04T02:33:50;3.73;;;2.00;;
1601;SDS011;794;48.592;9.634;2023-06-04T02:36:17;4.80;;;2.57;;
1601;SDS011;794;48.592;9.634;2023-06-04T02:38:45;5.80;;;2.60;;
1601;SDS011;794;48.592;9.634;2023-06-04T02:41:12;2.80;;;2.20;;
1601;SDS011;794;48.592;9.634;2023-06-04T02:43:40;3.90;;;2.80;;
1601;SDS011;794;48.592;9.634;2023-06-04T02:46:07;3.47;;;2.20;;
1601;SDS011;794;48.592;9.634;2023-06-04T02:48:35;2.73;;;2.30;;
1601;SDS011;794;48.592;9.634;2023-06-04T02:51:02;5.60;;;2.10;;
1601;SDS011;794;48.592;9.634;2023-06-04T02:53:30;3.03;;;2.40;;
1601;SDS011;794;48.592;9.634;2023-06-04T02:55:57;3.10;;;2.20;;
1601;SDS011;794;48.592;9.634;2023-06-04T02:58:24;3.60;;;2.60;;
1601;SDS011;794;48.592;9.634;2023-06-04T03:00:55;2.57;;;2.30;;
1601;SDS011;794;48.592;9.634;2023-06-04T03:03:22;4.57;;;1.90;;
1601;SDS011;794;48.592;9.634;2023-06-04T03:05:49;4.03;;;2.53;;
1601;SDS011;794;48.592;9.634;2023-06-04T03:08:17;2.73;;;2.17;;
1601;SDS011;794;48.592;9.634;2023-06-04T03:10:45;2.80;;;2.40;;
1601;SDS011;794;48.592;9.634;2023-06-04T03:13:12;5.90;;;2.37;;
1601;SDS011;794;48.592;9.634;2023-06-04T03:15:40;4.33;;;2.10;;
1601;SDS011;794;48.592;9.634;2023-06-04T03:18:08;2.43;;;2.10;;
1601;SDS011;794;48.592;9.634;2023-06-04T03:20:36;1.70;;;1.60;;
1601;SDS011;794;48.592;9.634;2023-06-04T03:23:04;2.37;;;2.17;;
1601;SDS011;794;48.592;9.634;2023-06-04T03:25:31;2.47;;;2.30;;
1601;SDS011;794;48.592;9.634;2023-06-04T03:27:58;3.77;;;2.30;;
1601;SDS011;794;48.592;9.634;2023-06-04T03:30:28;5.20;;;2.20;;
1601;SDS011;794;48.592;9.634;2023-06-04T03:32:56;2.17;;;1.97;;
1601;SDS011;794;48.592;9.634;2023-06-04T03:35:24;2.50;;;2.30;;
1601;SDS011;794;48.592;9.634;2023-06-04T03:37:51;2.87;;;2.37;;
1601;SDS011;794;48.592;9.634;2023-06-04T03:40:18;3.27;;;1.90;;
1601;SDS011;794;48.592;9.634;2023-06-04T03:42:46;7.47;;;2.30;;
1601;SDS011;794;48.592;9.634;2023-06-04T03:45:13;2.80;;;2.30;;
1601;SDS011;794;48.592;9.634;2023-06-04T03:47:40;3.60;;;2.63;;
1601;SDS011;794;48.592;9.634;2023-06-04T03:50:07;3.30;;;2.63;;
1601;SDS011;794;48.592;9.634;2023-06-04T03:52:36;39.67;;;4.10;;
1601;SDS011;794;48.592;9.634;2023-06-04T03:55:04;3.60;;;1.80;;
1601;SDS011;794;48.592;9.634;2023-06-04T03:57:31;2.53;;;2.03;;
1601;SDS011;794;48.592;9.634;2023-06-04T03:59:58;2.73;;;1.93;;
1601;SDS011;794;48.592;9.634;2023-06-04T04:02:26;4.13;;;2.20;;
1601;SDS011;794;48.592;9.634;2023-06-04T04:04:53;2.67;;;2.07;;
1601;SDS011;794;48.592;9.634;2023-06-04T04:07:22;3.87;;;1.90;;
1601;SDS011;794;48.592;9.634;2023-06-04T04:09:52;2.90;;;2.07;;
1601;SDS011;794;48.592;9.634;2023-06-04T04:12:19;2.40;;;2.20;;
1601;SDS011;794;48.592;9.634;2023-06-04T04:14:46;2.00;;;1.90;;
1601;SDS011;794;48.592;9.634;2023-06-04T04:17:13;3.43;;;2.40;;
1601;SDS011;794;48.592;9.634;2023-06-04T04:19:43;3.20;;;2.80;;
1601;SDS011;794;48.592;9.634;2023-06-04T04:22:11;5.73;;;2.30;;
1601;SDS011;794;48.592;9.634;2023-06-04T04:24:42;3.03;;;2.50;;
1601;SDS011;794;48.592;9.634;2023-06-04T04:27:11;2.40;;;1.93;;
1601;SDS011;794;48.592;9.634;2023-06-04T04:29:38;3.30;;;2.20;;
1601;SDS011;794;48.592;9.634;2023-06-04T04:32:07;3.90;;;1.97;;
1601;SDS011;794;48.592;9.634;2023-06-04T04:34:36;2.53;;;2.13;;
1601;SDS011;794;48.592;9.634;2023-06-04T04:37:04;4.80;;;2.67;;
1601;SDS011;794;48.592;9.634;2023-06-04T04:39:33;2.60;;;1.63;;
1601;SDS011;794;48.592;9.634;2023-06-04T04:42:01;2.83;;;2.03;;
1601;SDS011;794;48.592;9.634;2023-06-04T04:44:29;2.43;;;2.03;;
1601;SDS011;794;48.592;9.634;2023-06-04T04:46:56;3.53;;;2.07;;
1601;SDS011;794;48.592;9.634;2023-06-04T04:49:23;3.63;;;2.63;;
1601;SDS011;794;48.592;9.634;2023-06-04T04:51:51;2.10;;;1.90;;
1601;SDS011;794;48.592;9.634;2023-06-04T04:54:18;3.07;;;2.20;;
1601;SDS011;794;48.592;9.634;2023-06-04T04:56:45;2.27;;;1.70;;
1601;SDS011;794;48.592;9.634;2023-06-04T04:59:12;3.97;;;2.43;;
1601;SDS011;794;48.592;9.634;2023-06-04T05:04:17;4.60;;;2.80;;
1601;SDS011;794;48.592;9.634;2023-06-04T05:06:44;6.03;;;2.07;;
1601;SDS011;794;48.592;9.634;2023-06-04T05:09:12;3.27;;;2.33;;
1601;SDS011;794;48.592;9.634;2023-06-04T05:11:40;2.90;;;2.27;;
1601;SDS011;794;48.592;9.634;2023-06-04T05:14:07;2.40;;;2.17;;
1601;SDS011;794;48.592;9.634;2023-06-04T05:16:36;4.20;;;1.87;;
1601;SDS011;794;48.592;9.634;2023-06-04T05:19:07;7.50;;;2.40;;
1601;SDS011;794;48.592;9.634;2023-06-04T05:21:36;3.20;;;2.60;;
1601;SDS011;794;48.592;9.634;2023-06-04T05:24:03;3.70;;;2.30;;
1601;SDS011;794;48.592;9.634;2023-06-04T05:26:30;2.60;;;2.00;;
1601;SDS011;794;48.592;9.634;2023-06-04T05:28:58;3.93;;;2.10;;
1601;SDS011;794;48.592;9.634;2023-06-04T05:31:26;5.33;;;2.83;;
1601;SDS011;794;48.592;9.634;2023-06-04T05:33:53;3.37;;;2.17;;
1601;SDS011;794;48.592;9.634;2023-06-04T05:36:21;4.23;;;2.70;;
1601;SDS011;794;48.592;9.634;2023-06-04T05:38:48;3.13;;;2.60;;
1601;SDS011;794;48.592;9.634;2023-06-04T05:41:22;3.33;;;2.53;;
1601;SDS011;794;48.592;9.634;2023-06-04T05:43:51;3.03;;;2.40;;
1601;SDS011;794;48.592;9.634;2023-06-04T05:46:18;4.80;;;2.83;;
1601;SDS011;794;48.592;9.634;2023-06-04T05:48:48;3.43;;;2.03;;
1601;SDS011;794;48.592;9.634;2023-06-04T05:51:16;5.60;;;2.43;;
1601;SDS011;794;48.592;9.634;2023-06-04T05:53:46;8.37;;;2.70;;
1601;SDS011;794;48.592;9.634;2023-06-04T05:56:13;3.00;;;2.57;;
1601;SDS011;794;48.592;9.634;2023-06-04T05:58:41;3.30;;;2.90;;
1601;SDS011;794;48.592;9.634;2023-06-04T06:01:08;5.80;;;2.37;;
1601;SDS011;794;48.592;9.634;2023-06-04T06:03:36;4.20;;;2.60;;
1601;SDS011;794;48.592;9.634;2023-06-04T06:06:03;2.83;;;2.53;;
1601;SDS011;794;48.592;9.634;2023-06-04T06:08:30;4.50;;;2.60;;
1601;SDS011;794;48.592;9.634;2023-06-04T06:10:59;4.10;;;2.13;;
1601;SDS011;794;48.592;9.634;2023-06-04T06:13:29;3.97;;;2.33;;
1601;SDS011;794;48.592;9.634;2023-06-04T06:15:56;5.33;;;2.87;;
1601;SDS011;794;48.592;9.634;2023-06-04T06:18:23;4.43;;;2.30;;
1601;SDS011;794;48.592;9.634;2023-06-04T06:20:51;2.47;;;2.27;;
1601;SDS011;794;48.592;9.634;2023-06-04T06:23:18;3.53;;;2.63;;
1601;SDS011;794;48.592;9.634;2023-06-04T06:25:47;2.93;;;2.63;;
1601;SDS011;794;48.592;9.634;2023-06-04T06:28:18;4.00;;;2.50;;
1601;SDS011;794;48.592;9.634;2023-06-04T06:30:48;5.27;;;3.10;;
1601;SDS011;794;48.592;9.634;2023-06-04T06:33:15;5.33;;;3.23;;
1601;SDS011;794;48.592;9.634;2023-06-04T06:35:46;3.17;;;2.87;;
1601;SDS011;794;48.592;9.634;2023-06-04T06:38:13;4.33;;;2.93;;
1601;SDS011;794;48.592;9.634;2023-06-04T06:40:41;4.20;;;2.83;;
1601;SDS011;794;48.592;9.634;2023-06-04T06:43:08;3.67;;;2.43;;
1601;SDS011;794;48.592;9.634;2023-06-04T06:45:38;3.93;;;2.63;;
1601;SDS011;794;48.592;9.634;2023-06-04T06:48:05;5.97;;;2.83;;
1601;SDS011;794;48.592;9.634;2023-06-04T06:50:32;3.50;;;2.90;;
1601;SDS011;794;48.592;9.634;2023-06-04T06:53:01;3.47;;;2.50;;
1601;SDS011;794;48.592;9.634;2023-06-04T06:55:28;4.20;;;2.33;;
1601;SDS011;794;48.592;9.634;2023-06-04T06:57:56;4.00;;;2.63;;
1601;SDS011;794;48.592;9.634;2023-06-04T07:00:23;7.63;;;3.13;;
1601;SDS011;794;48.592;9.634;2023-06-04T07:02:55;3.47;;;2.53;;
1601;SDS011;794;48.592;9.634;2023-06-04T07:05:22;4.60;;;2.87;;
1601;SDS011;794;48.592;9.634;2023-06-04T07:07:49;3.47;;;2.90;;
1601;SDS011;794;48.592;9.634;2023-06-04T07:10:17;2.90;;;2.53;;
1601;SDS011;794;48.592;9.634;2023-06-04T07:12:45;3.20;;;2.90;;
1601;SDS011;794;48.592;9.634;2023-06-04T07:15:12;7.63;;;3.43;;
1601;SDS011;794;48.592;9.634;2023-06-04T07:17:39;7.20;;;3.00;;
1601;SDS011;794;48.592;9.634;2023-06-04T07:20:08;3.13;;;2.23;;
1601;SDS011;794;48.592;9.634;2023-06-04T07:22:35;3.53;;;2.97;;
1601;SDS011;794;48.592;9.634;2023-06-04T07:25:03;3.47;;;3.17;;
1601;SDS011;794;48.592;9.634;2023-06-04T07:27:30;5.40;;;3.40;;
1601;SDS011;794;48.592;9.634;2023-06-04T07:29:57;5.77;;;2.80;;
1601;SDS011;794;48.592;9.634;2023-06-04T07:32:26;3.07;;;2.77;;
1601;SDS011;794;48.592;9.634;2023-06-04T07:34:53;2.50;;;2.30;;
1601;SDS011;794;48.592;9.634;2023-06-04T07:37:25;3.70;;;3.30;;
1601;SDS011;794;48.592;9.634;2023-06-04T07:39:52;3.57;;;2.33;;
1601;SDS011;794;48.592;9.634;2023-06-04T07:42:22;12.97;;;2.90;;
1601;SDS011;794;48.592;9.634;2023-06-04T07:44:49;4.73;;;4.23;;
1601;SDS011;794;48.592;9.634;2023-06-04T07:47:16;5.23;;;3.10;;
1601;SDS011;794;48.592;9.634;2023-06-04T07:49:43;5.13;;;2.50;;
1601;SDS011;794;48.592;9.634;2023-06-04T07:52:10;3.57;;;2.50;;
1601;SDS011;794;48.592;9.634;2023-06-04T07:54:39;3.10;;;2.80;;
1601;SDS011;794;48.592;9.634;2023-06-04T07:57:07;3.20;;;2.40;;
1601;SDS011;794;48.592;9.634;2023-06-04T07:59:36;6.80;;;2.13;;
1601;SDS011;794;48.592;9.634;2023-06-04T08:02:03;3.87;;;2.80;;
1601;SDS011;794;48.592;9.634;2023-06-04T08:04:31;4.30;;;2.87;;
1601;SDS011;794;48.592;9.634;2023-06-04T08:06:58;5.77;;;3.47;;
1601;SDS011;794;48.592;9.634;2023-06-04T08:09:25;3.30;;;2.50;;
1601;SDS011;794;48.592;9.634;2023-06-04T08:11:54;4.17;;;2.67;;
1601;SDS011;794;48.592;9.634;2023-06-04T08:14:21;3.17;;;2.57;;
1601;SDS011;794;48.592;9.634;2023-06-04T08:16:52;6.13;;;3.30;;
1601;SDS011;794;48.592;9.634;2023-06-04T08:19:19;3.67;;;2.50;;
1601;SDS011;794;48.592;9.634;2023-06-04T08:21:48;3.80;;;3.40;;
1601;SDS011;794;48.592;9.634;2023-06-04T08:24:16;4.30;;;2.93;;
1601;SDS011;794;48.592;9.634;2023-06-04T08:26:43;2.80;;;2.60;;
1601;SDS011;794;48.592;9.634;2023-06-04T08:29:12;5.60;;;3.57;;
1601;SDS011;794;48.592;9.634;2023-06-04T08:31:39;3.60;;;2.80;;
1601;SDS011;794;48.592;9.634;2023-06-04T08:34:06;4.30;;;3.20;;
1601;SDS011;794;48.592;9.634;2023-06-04T08:36:33;3.77;;;2.80;;
1601;SDS011;794;48.592;9.634;2023-06-04T08:39:01;5.23;;;3.70;;
1601;SDS011;794;48.592;9.634;2023-06-04T08:41:34;4.50;;;3.27;;
1601;SDS011;794;48.592;9.634;2023-06-04T08:44:06;3.93;;;3.03;;
1601;SDS011;794;48.592;9.634;2023-06-04T08:46:36;4.00;;;2.77;;
1601;SDS011;794;48.592;9.634;2023-06-04T08:49:06;4.60;;;3.37;;
1601;SDS011;794;48.592;9.634;2023-06-04T08:51:33;3.40;;;2.90;;
1601;SDS011;794;48.592;9.634;2023-06-04T08:54:06;3.70;;;3.37;;
1601;SDS011;794;48.592;9.634;2023-06-04T08:56:34;3.27;;;2.97;;
1601;SDS011;794;48.592;9.634;2023-06-04T08:59:02;3.70;;;3.07;;
1601;SDS011;794;48.592;9.634;2023-06-04T09:01:31;7.50;;;3.40;;
1601;SDS011;794;48.592;9.634;2023-06-04T09:04:01;3.73;;;3.13;;
1601;SDS011;794;48.592;9.634;2023-06-04T09:06:33;5.10;;;3.33;;
1601;SDS011;794;48.592;9.634;2023-06-04T09:09:02;3.30;;;2.63;;
1601;SDS011;794;48.592;9.634;2023-06-04T09:11:33;2.90;;;2.70;;
1601;SDS011;794;48.592;9.634;2023-06-04T09:14:03;3.83;;;3.53;;
1601;SDS011;794;48.592;9.634;2023-06-04T09:16:41;4.53;;;3.57;;
1601;SDS011;794;48.592;9.634;2023-06-04T09:19:14;4.10;;;3.70;;
1601;SDS011;794;48.592;9.634;2023-06-04T09:21:50;5.63;;;3.33;;
1601;SDS011;794;48.592;9.634;2023-06-04T09:24:19;7.97;;;3.30;;
1601;SDS011;794;48.592;9.634;2023-06-04T09:26:47;4.33;;;3.83;;
1601;SDS011;794;48.592;9.634;2023-06-04T09:29:14;5.03;;;3.50;;
1601;SDS011;794;48.592;9.634;2023-06-04T09:31:43;5.30;;;3.23;;
1601;SDS011;794;48.592;9.634;2023-06-04T09:34:11;6.20;;;3.53;;
1601;SDS011;794;48.592;9.634;2023-06-04T09:36:40;5.90;;;3.50;;
1601;SDS011;794;48.592;9.634;2023-06-04T09:39:16;6.80;;;4.03;;
1601;SDS011;794;48.592;9.634;2023-06-04T09:41:43;7.73;;;3.83;;
1601;SDS011;794;48.592;9.634;2023-06-04T09:44:11;5.60;;;3.53;;
1601;SDS011;794;48.592;9.634;2023-06-04T09:46:38;5.20;;;3.90;;
1601;SDS011;794;48.592;9.634;2023-06-04T09:49:05;3.90;;;3.50;;
1601;SDS011;794;48.592;9.634;2023-06-04T09:51:33;6.50;;;4.30;;
1601;SDS011;794;48.592;9.634;2023-06-04T09:54:02;4.30;;;3.20;;
1601;SDS011;794;48.592;9.634;2023-06-04T09:56:30;4.50;;;3.90;;
1601;SDS011;794;48.592;9.634;2023-06-04T09:58:58;6.07;;;3.70;;
1601;SDS011;794;48.592;9.634;2023-06-04T10:01:29;4.80;;;3.70;;
1601;SDS011;794;48.592;9.634;2023-06-04T10:03:57;7.30;;;3.60;;
1601;SDS011;794;48.592;9.634;2023-06-04T10:06:30;4.83;;;4.33;;
1601;SDS011;794;48.592;9.634;2023-06-04T10:09:04;8.60;;;4.50;;
1601;SDS011;794;48.592;9.634;2023-06-04T10:11:34;5.10;;;4.20;;
1601;SDS011;794;48.592;9.634;2023-06-04T10:14:06;6.57;;;4.10;;
1601;SDS011;794;48.592;9.634;2023-06-04T10:16:36;4.60;;;4.20;;
1601;SDS011;794;48.592;9.634;2023-06-04T10:19:07;6.10;;;4.17;;
1601;SDS011;794;48.592;9.634;2023-06-04T10:21:35;5.00;;;4.60;;
1601;SDS011;794;48.592;9.634;2023-06-04T10:24:04;7.13;;;4.40;;
1601;SDS011;794;48.592;9.634;2023-06-04T10:26:32;5.10;;;4.17;;
1601;SDS011;794;48.592;9.634;2023-06-04T10:29:00;4.30;;;3.90;;
1601;SDS011;794;48.592;9.634;2023-06-04T10:31:27;7.63;;;4.20;;
1601;SDS011;794;48.592;9.634;2023-06-04T10:33:55;5.67;;;3.47;;
1601;SDS011;794;48.592;9.634;2023-06-04T10:36:23;4.60;;;4.20;;
1601;SDS011;794;48.592;9.634;2023-06-04T10:38:51;4.63;;;4.23;;
1601;SDS011;794;48.592;9.634;2023-06-04T10:41:22;8.10;;;3.73;;
1601;SDS011;794;48.592;9.634;2023-06-04T10:43:51;5.50;;;4.80;;
1601;SDS011;794;48.592;9.634;2023-06-04T10:46:37;5.40;;;4.83;;
1601;SDS011;794;48.592;9.634;2023-06-04T10:49:05;4.03;;;3.63;;
1601;SDS011;794;48.592;9.634;2023-06-04T10:51:32;7.60;;;4.70;;
1601;SDS011;794;48.592;9.634;2023-06-04T10:54:01;6.60;;;3.90;;
1601;SDS011;794;48.592;9.634;2023-06-04T10:56:31;6.03;;;4.43;;
1601;SDS011;794;48.592;9.634;2023-06-04T10:58:59;5.30;;;4.43;;
1601;SDS011;794;48.592;9.634;2023-06-04T11:01:28;6.80;;;4.63;;
1601;SDS011;794;48.592;9.634;2023-06-04T11:03:56;4.67;;;4.23;;
1601;SDS011;794;48.592;9.634;2023-06-04T11:06:24;6.50;;;4.90;;
1601;SDS011;794;48.592;9.634;2023-06-04T11:09:01;5.27;;;4.77;;
1601;SDS011;794;48.592;9.634;2023-06-04T11:11:31;4.23;;;3.60;;
1601;SDS011;794;48.592;9.634;2023-06-04T11:14:06;6.40;;;4.90;;
1601;SDS011;794;48.592;9.634;2023-06-04T11:16:34;5.33;;;4.83;;
1601;SDS011;794;48.592;9.634;2023-06-04T11:19:02;4.63;;;4.00;;
1601;SDS011;794;48.592;9.634;2023-06-04T11:21:29;4.73;;;4.20;;
1601;SDS011;794;48.592;9.634;2023-06-04T11:23:57;4.50;;;3.87;;
1601;SDS011;794;48.592;9.634;2023-06-04T11:26:29;6.37;;;4.30;;
1601;SDS011;794;48.592;9.634;2023-06-04T11:28:59;5.57;;;4.33;;
1601;SDS011;794;48.592;9.634;2023-06-04T11:31:26;7.60;;;5.03;;
1601;SDS011;794;48.592;9.634;2023-06-04T11:33:53;6.03;;;4.23;;
1601;SDS011;794;48.592;9.634;2023-06-04T11:36:23;5.50;;;5.00;;
1601;SDS011;794;48.592;9.634;2023-06-04T11:38:55;5.80;;;4.40;;
1601;SDS011;794;48.592;9.634;2023-06-04T11:41:26;5.80;;;4.43;;
1601;SDS011;794;48.592;9.634;2023-06-04T11:43:56;8.70;;;4.73;;
1601;SDS011;794;48.592;9.634;2023-06-04T11:46:24;5.50;;;4.60;;
1601;SDS011;794;48.592;9.634;2023-06-04T11:48:51;5.23;;;4.73;;
1601;SDS011;794;48.592;9.634;2023-06-04T11:51:19;5.73;;;4.37;;
1601;SDS011;794;48.592;9.634;2023-06-04T11:53:52;5.20;;;4.47;;
1601;SDS011;794;48.592;9.634;2023-06-04T11:56:22;5.90;;;4.77;;
1601;SDS011;794;48.592;9.634;2023-06-04T11:58:51;7.43;;;4.50;;
1601;SDS011;794;48.592;9.634;2023-06-04T12:01:21;4.87;;;4.43;;
1601;SDS011;794;48.592;9.634;2023-06-04T12:03:53;4.40;;;4.00;;
1601;SDS011;794;48.592;9.634;2023-06-04T12:06:22;4.93;;;4.47;;
1601;SDS011;794;48.592;9.634;2023-06-04T12:08:49;4.37;;;3.97;;
1601;SDS011;794;48.592;9.634;2023-06-04T12:11:29;4.20;;;3.80;;
1601;SDS011;794;48.592;9.634;2023-06-04T12:13:59;7.67;;;4.30;;
1601;SDS011;794;48.592;9.634;2023-06-04T12:16:28;4.67;;;3.70;;
1601;SDS011;794;48.592;9.634;2023-06-04T12:19:05;3.60;;;3.30;;
1601;SDS011;794;48.592;9.634;2023-06-04T12:21:36;4.17;;;3.77;;
1601;SDS011;794;48.592;9.634;2023-06-04T12:24:08;8.23;;;4.63;;
1601;SDS011;794;48.592;9.634;2023-06-04T12:26:36;6.00;;;4.60;;
1601;SDS011;794;48.592;9.634;2023-06-04T12:29:09;8.10;;;4.20;;
1601;SDS011;794;48.592;9.634;2023-06-04T12:31:42;7.20;;;4.50;;
1601;SDS011;794;48.592;9.634;2023-06-04T12:34:10;5.20;;;4.17;;
1601;SDS011;794;48.592;9.634;2023-06-04T12:36:37;8.13;;;4.47;;
1601;SDS011;794;48.592;9.634;2023-06-04T12:39:09;6.70;;;4.50;;
1601;SDS011;794;48.592;9.634;2023-06-04T12:41:46;4.70;;;4.30;;
1601;SDS011;794;48.592;9.634;2023-06-04T12:44:16;4.93;;;4.43;;
1601;SDS011;794;48.592;9.634;2023-06-04T12:46:46;6.07;;;4.40;;
1601;SDS011;794;48.592;9.634;2023-06-04T12:49:13;4.07;;;3.67;;
1601;SDS011;794;48.592;9.634;2023-06-04T12:51:40;6.50;;;4.40;;
1601;SDS011;794;48.592;9.634;2023-06-04T12:54:07;6.10;;;4.60;;
1601;SDS011;794;48.592;9.634;2023-06-04T12:56:35;9.23;;;4.73;;
1601;SDS011;794;48.592;9.634;2023-06-04T12:59:03;5.00;;;4.60;;
1601;SDS011;794;48.592;9.634;2023-06-04T13:01:30;4.13;;;3.60;;
1601;SDS011;794;48.592;9.634;2023-06-04T13:04:18;5.40;;;4.20;;
1601;SDS011;794;48.592;9.634;2023-06-04T13:06:56;5.70;;;4.10;;
1601;SDS011;794;48.592;9.634;2023-06-04T13:09:25;4.77;;;4.00;;
1601;SDS011;794;48.592;9.634;2023-06-04T13:11:53;5.83;;;4.90;;
1601;SDS011;794;48.592;9.634;2023-06-04T13:14:20;5.20;;;4.70;;
1601;SDS011;794;48.592;9.634;2023-06-04T13:16:47;6.70;;;3.80;;
1601;SDS011;794;48.592;9.634;2023-06-04T13:19:17;5.50;;;4.20;;
1601;SDS011;794;48.592;9.634;2023-06-04T13:21:45;5.37;;;4.50;;
1601;SDS011;794;48.592;9.634;2023-06-04T13:24:13;5.57;;;5.03;;
1601;SDS011;794;48.592;9.634;2023-06-04T13:26:40;5.10;;;4.53;;
1601;SDS011;794;48.592;9.634;2023-06-04T13:29:08;5.20;;;3.83;;
1601;SDS011;794;48.592;9.634;2023-06-04T13:31:35;13.23;;;4.97;;
1601;SDS011;794;48.592;9.634;2023-06-04T13:34:04;5.20;;;4.70;;
1601;SDS011;794;48.592;9.634;2023-06-04T13:36:32;6.93;;;3.97;;
1601;SDS011;794;48.592;9.634;2023-06-04T13:39:01;8.00;;;3.93;;
1601;SDS011;794;48.592;9.634;2023-06-04T13:41:28;5.40;;;3.90;;
1601;SDS011;794;48.592;9.634;2023-06-04T13:43:55;7.33;;;4.70;;
1601;SDS011;794;48.592;9.634;2023-06-04T13:46:22;5.63;;;4.50;;
1601;SDS011;794;48.592;9.634;2023-06-04T13:48:50;5.37;;;4.10;;
1601;SDS011;794;48.592;9.634;2023-06-04T13:51:17;4.57;;;4.07;;
1601;SDS011;794;48.592;9.634;2023-06-04T13:53:46;9.03;;;4.80;;
1601;SDS011;794;48.592;9.634;2023-06-04T13:56:13;5.30;;;4.67;;
1601;SDS011;794;48.592;9.634;2023-06-04T13:58:41;4.07;;;3.67;;
1601;SDS011;794;48.592;9.634;2023-06-04T14:01:08;4.70;;;4.30;;
1601;SDS011;794;48.592;9.634;2023-06-04T14:03:35;6.03;;;4.90;;
1601;SDS011;794;48.592;9.634;2023-06-04T14:06:03;5.37;;;3.80;;
1601;SDS011;794;48.592;9.634;2023-06-04T14:08:30;8.90;;;4.50;;
1601;SDS011;794;48.592;9.634;2023-06-04T14:10:59;4.67;;;4.27;;
1601;SDS011;794;48.592;9.634;2023-06-04T14:13:28;9.17;;;4.23;;
1601;SDS011;794;48.592;9.634;2023-06-04T14:15:55;8.60;;;4.17;;
1601;SDS011;794;48.592;9.634;2023-06-04T14:18:22;6.50;;;4.83;;
1601;SDS011;794;48.592;9.634;2023-06-04T14:20:50;4.80;;;3.80;;
1601;SDS011;794;48.592;9.634;2023-06-04T14:23:17;4.60;;;4.17;;
1601;SDS011;794;48.592;9.634;2023-06-04T14:25:44;5.33;;;4.73;;
1601;SDS011;794;48.592;9.634;2023-06-04T14:28:13;5.13;;;4.13;;
1601;SDS011;794;48.592;9.634;2023-06-04T14:30:40;4.33;;;3.93;;
1601;SDS011;794;48.592;9.634;2023-06-04T14:33:07;5.33;;;4.20;;
1601;SDS011;794;48.592;9.634;2023-06-04T14:35:34;6.03;;;4.20;;
1601;SDS011;794;48.592;9.634;2023-06-04T14:38:03;5.70;;;4.10;;
1601;SDS011;794;48.592;9.634;2023-06-04T14:40:31;5.30;;;4.80;;
1601;SDS011;794;48.592;9.634;2023-06-04T14:43:00;4.90;;;4.00;;
1601;SDS011;794;48.592;9.634;2023-06-04T14:45:29;8.10;;;4.60;;
1601;SDS011;794;48.592;9.634;2023-06-04T14:47:56;4.77;;;3.80;;
1601;SDS011;794;48.592;9.634;2023-06-04T14:50:23;6.27;;;4.40;;
1601;SDS011;794;48.592;9.634;2023-06-04T14:52:50;4.30;;;3.70;;
1601;SDS011;794;48.592;9.634;2023-06-04T14:55:17;6.10;;;4.33;;
1601;SDS011;794;48.592;9.634;2023-06-04T14:57:45;5.00;;;3.73;;
1601;SDS011;794;48.592;9.634;2023-06-04T15:00:12;5.43;;;4.90;;
1601;SDS011;794;48.592;9.634;2023-06-04T15:02:41;4.57;;;4.13;;
1601;SDS011;794;48.592;9.634;2023-06-04T15:05:08;5.23;;;3.97;;
1601;SDS011;794;48.592;9.634;2023-06-04T15:07:35;8.83;;;4.30;;
1601;SDS011;794;48.592;9.634;2023-06-04T15:10:03;5.73;;;3.93;;
1601;SDS011;794;48.592;9.634;2023-06-04T15:12:31;4.50;;;3.80;;
1601;SDS011;794;48.592;9.634;2023-06-04T15:15:01;5.50;;;4.67;;
1601;SDS011;794;48.592;9.634;2023-06-04T15:17:28;4.60;;;3.83;;
1601;SDS011;794;48.592;9.634;2023-06-04T15:19:57;4.77;;;4.37;;
1601;SDS011;794;48.592;9.634;2023-06-04T15:22:24;5.40;;;4.33;;
1601;SDS011;794;48.592;9.634;2023-06-04T15:24:52;5.33;;;4.03;;
1601;SDS011;794;48.592;9.634;2023-06-04T15:27:19;4.27;;;3.73;;
1601;SDS011;794;48.592;9.634;2023-06-04T15:29:47;5.00;;;4.50;;
1601;SDS011;794;48.592;9.634;2023-06-04T15:32:14;5.63;;;4.70;;
1601;SDS011;794;48.592;9.634;2023-06-04T15:34:41;6.37;;;3.57;;
1601;SDS011;794;48.592;9.634;2023-06-04T15:37:10;5.73;;;4.27;;
1601;SDS011;794;48.592;9.634;2023-06-04T15:39:37;7.63;;;4.63;;
1601;SDS011;794;48.592;9.634;2023-06-04T15:42:04;4.00;;;3.70;;